Time;durP1;ratioP1;P1;durP2;ratioP2;P2;SDS_P1;SDS_P2;PMS_P1;PMS_P2;Temp;Humidity;BMP_temperature;BMP_pressure;BME280_temperature;BME280_humidity;BME280_pressure;Samples;Min_cycle;Max_cycle;Signal;HPM_P1;HPM_P2
2023/09/29 00:01:29;;;;;;;0.70;0.70;;;;;;;;;;5116260;28;20443;-63
2023/09/29 00:03:56;;;;;;;0.70;0.70;;;;;;;;;;5116166;28;20446;-63
2023/09/29 00:06:24;;;;;;;0.77;0.77;;;;;;;;;;5116198;28;20440;-63
2023/09/29 00:08:51;;;;;;;0.70;0.70;;;;;;;;;;5116031;28;20516;-63
2023/09/29 00:11:18;;;;;;;0.80;0.80;;;;;;;;;;5116396;28;20445;-63
2023/09/29 00:13:47;;;;;;;0.90;0.90;;;;;;;;;;5116060;28;20448;-63
2023/09/29 00:16:14;;;;;;;0.70;0.70;;;;;;;;;;5115797;28;20904;-63
2023/09/29 00:18:42;;;;;;;0.70;0.70;;;;;;;;;;5116138;28;20466;-63
2023/09/29 00:21:09;;;;;;;0.70;0.70;;;;;;;;;;5116560;28;20450;-63
2023/09/29 00:23:36;;;;;;;0.80;0.80;;;;;;;;;;5114636;28;20446;-63
2023/09/29 00:26:03;;;;;;;0.70;0.70;;;;;;;;;;5115590;28;20564;-63
2023/09/29 00:28:31;;;;;;;0.83;0.83;;;;;;;;;;5115317;28;20983;-63
2023/09/29 00:31:00;;;;;;;0.70;0.70;;;;;;;;;;5115369;28;20443;-63
2023/09/29 00:33:27;;;;;;;0.70;0.70;;;;;;;;;;5115726;28;20525;-64
2023/09/29 00:35:54;;;;;;;0.70;0.70;;;;;;;;;;5115620;28;20439;-63
2023/09/29 00:38:22;;;;;;;0.80;0.80;;;;;;;;;;5115533;28;20524;-63
2023/09/29 00:40:49;;;;;;;0.70;0.70;;;;;;;;;;5116069;28;20448;-63
2023/09/29 00:43:16;;;;;;;0.70;0.70;;;;;;;;;;5116102;28;20448;-63
2023/09/29 00:45:43;;;;;;;0.70;0.70;;;;;;;;;;5115443;28;20491;-63
2023/09/29 00:48:12;;;;;;;0.70;0.70;;;;;;;;;;5115254;28;20475;-63
2023/09/29 00:50:40;;;;;;;0.70;0.70;;;;;;;;;;5115040;28;20431;-63
2023/09/29 00:53:11;;;;;;;0.90;0.90;;;;;;;;;;5115558;28;20535;-63
2023/09/29 00:55:41;;;;;;;0.70;0.70;;;;;;;;;;5115241;28;20444;-63
2023/09/29 00:58:09;;;;;;;0.70;0.70;;;;;;;;;;5115678;28;20508;-63
2023/09/29 01:00:38;;;;;;;0.70;0.70;;;;;;;;;;5115113;28;20840;-63
2023/09/29 01:03:06;;;;;;;0.70;0.70;;;;;;;;;;5115210;28;20494;-63
2023/09/29 01:05:38;;;;;;;0.80;0.80;;;;;;;;;;5114685;28;20512;-63
2023/09/29 01:08:09;;;;;;;0.70;0.70;;;;;;;;;;5114979;28;20470;-63
2023/09/29 01:10:36;;;;;;;0.70;0.70;;;;;;;;;;5114877;28;20513;-63
2023/09/29 01:13:04;;;;;;;0.70;0.70;;;;;;;;;;5114534;28;20473;-63
2023/09/29 01:15:32;;;;;;;0.70;0.70;;;;;;;;;;5114806;28;20476;-63
2023/09/29 01:18:00;;;;;;;0.70;0.70;;;;;;;;;;5114526;28;20451;-63
2023/09/29 01:20:30;;;;;;;0.70;0.70;;;;;;;;;;5114822;28;20463;-63
2023/09/29 01:23:00;;;;;;;0.70;0.70;;;;;;;;;;5115431;28;20446;-63
2023/09/29 01:25:28;;;;;;;0.80;0.80;;;;;;;;;;5114253;28;20561;-63
2023/09/29 01:27:56;;;;;;;0.70;0.70;;;;;;;;;;5114484;28;20485;-63
2023/09/29 01:30:25;;;;;;;0.70;0.70;;;;;;;;;;5114154;28;20433;-63
2023/09/29 01:32:53;;;;;;;0.70;0.70;;;;;;;;;;5114157;28;20441;-63
2023/09/29 01:35:23;;;;;;;0.70;0.70;;;;;;;;;;5114470;28;20433;-63
2023/09/29 01:37:51;;;;;;;0.70;0.70;;;;;;;;;;5114610;28;20435;-63
2023/09/29 01:40:20;;;;;;;0.70;0.70;;;;;;;;;;5114251;28;20441;-63
2023/09/29 01:42:50;;;;;;;0.70;0.70;;;;;;;;;;5114852;28;20472;-63
2023/09/29 01:45:17;;;;;;;0.70;0.70;;;;;;;;;;5113984;28;20442;-63
2023/09/29 01:47:45;;;;;;;0.70;0.70;;;;;;;;;;5113863;28;20433;-63
2023/09/29 01:50:14;;;;;;;0.70;0.70;;;;;;;;;;5113846;28;20439;-63
2023/09/29 01:52:42;;;;;;;0.70;0.70;;;;;;;;;;5114314;28;20439;-63
2023/09/29 01:55:10;;;;;;;0.70;0.70;;;;;;;;;;5113687;28;20541;-63
2023/09/29 01:57:37;;;;;;;0.80;0.80;;;;;;;;;;5113948;28;20491;-63
2023/09/29 02:00:10;;;;;;;0.70;0.70;;;;;;;;;;5113876;28;20445;-63
2023/09/29 02:02:38;;;;;;;0.70;0.70;;;;;;;;;;5113584;28;20417;-63
2023/09/29 02:05:07;;;;;;;0.70;0.70;;;;;;;;;;5113923;28;20900;-63
2023/09/29 02:07:36;;;;;;;0.70;0.70;;;;;;;;;;5113578;28;20438;-63
2023/09/29 02:10:03;;;;;;;0.70;0.70;;;;;;;;;;5113607;28;20443;-63
2023/09/29 02:12:31;;;;;;;0.70;0.70;;;;;;;;;;5113762;28;20436;-63
2023/09/29 02:14:58;;;;;;;0.70;0.70;;;;;;;;;;5113718;28;20442;-63
2023/09/29 02:17:27;;;;;;;0.70;0.70;;;;;;;;;;5113933;28;20464;-63
2023/09/29 02:19:54;;;;;;;0.70;0.70;;;;;;;;;;5113268;28;20443;-63
2023/09/29 02:22:22;;;;;;;0.70;0.70;;;;;;;;;;5113666;28;20446;-63
2023/09/29 02:24:49;;;;;;;0.80;0.80;;;;;;;;;;5113748;28;20476;-63
2023/09/29 02:27:17;;;;;;;0.70;0.70;;;;;;;;;;5113263;28;20450;-63
2023/09/29 02:29:44;;;;;;;0.70;0.70;;;;;;;;;;5113678;28;20501;-64
2023/09/29 02:32:12;;;;;;;0.70;0.70;;;;;;;;;;5113883;28;20482;-64
2023/09/29 02:34:40;;;;;;;0.80;0.80;;;;;;;;;;5113114;28;20922;-64
2023/09/29 02:37:07;;;;;;;0.70;0.70;;;;;;;;;;5113601;28;20443;-64
2023/09/29 02:39:34;;;;;;;0.70;0.70;;;;;;;;;;5113659;28;20441;-64
2023/09/29 02:42:02;;;;;;;0.80;0.80;;;;;;;;;;5113717;28;20438;-64
2023/09/29 02:44:33;;;;;;;0.70;0.70;;;;;;;;;;5113437;28;20442;-64
2023/09/29 02:47:00;;;;;;;0.70;0.70;;;;;;;;;;5117116;28;20948;-64
2023/09/29 02:49:30;;;;;;;0.70;0.70;;;;;;;;;;5120661;28;20477;-64
2023/09/29 02:51:58;;;;;;;0.70;0.70;;;;;;;;;;5120070;28;20446;-63
2023/09/29 02:54:26;;;;;;;0.70;0.70;;;;;;;;;;5120763;28;20449;-64
2023/09/29 02:56:56;;;;;;;0.70;0.70;;;;;;;;;;5120116;28;20441;-63
2023/09/29 02:59:24;;;;;;;0.70;0.70;;;;;;;;;;5120701;28;20445;-64
2023/09/29 03:01:51;;;;;;;0.70;0.70;;;;;;;;;;5119776;28;20997;-64
2023/09/29 03:04:19;;;;;;;0.70;0.70;;;;;;;;;;5120151;28;20796;-66
2023/09/29 03:06:47;;;;;;;0.70;0.70;;;;;;;;;;5119827;28;20927;-64
2023/09/29 03:09:18;;;;;;;0.70;0.70;;;;;;;;;;5119972;28;20473;-65
2023/09/29 03:11:45;;;;;;;0.70;0.70;;;;;;;;;;5119798;28;20539;-63
2023/09/29 03:14:15;;;;;;;0.70;0.70;;;;;;;;;;5120451;28;20829;-64
2023/09/29 03:16:43;;;;;;;0.70;0.70;;;;;;;;;;5119790;28;20474;-63
2023/09/29 03:19:10;;;;;;;0.70;0.70;;;;;;;;;;5119939;28;20450;-63
2023/09/29 03:21:37;;;;;;;0.70;0.70;;;;;;;;;;5119473;28;20526;-63
2023/09/29 03:24:07;;;;;;;0.70;0.70;;;;;;;;;;5119880;27;20450;-63
2023/09/29 03:26:36;;;;;;;0.70;0.70;;;;;;;;;;5119996;28;20449;-64
2023/09/29 03:29:04;;;;;;;0.80;0.80;;;;;;;;;;5120325;28;20488;-64
2023/09/29 03:31:31;;;;;;;0.70;0.70;;;;;;;;;;5119409;28;20451;-63
2023/09/29 03:33:58;;;;;;;0.70;0.70;;;;;;;;;;5120072;28;20434;-63
2023/09/29 03:36:26;;;;;;;0.70;0.70;;;;;;;;;;5119639;28;20458;-64
2023/09/29 03:38:54;;;;;;;0.90;0.90;;;;;;;;;;5119653;28;20435;-65
2023/09/29 03:41:23;;;;;;;0.70;0.70;;;;;;;;;;5119644;28;20430;-64
2023/09/29 03:43:52;;;;;;;0.80;0.80;;;;;;;;;;5119450;28;20446;-64
2023/09/29 03:46:20;;;;;;;0.70;0.70;;;;;;;;;;5119644;28;20853;-64
2023/09/29 03:48:47;;;;;;;0.70;0.70;;;;;;;;;;5119552;28;20498;-64
2023/09/29 03:51:22;;;;;;;0.70;0.70;;;;;;;;;;5119559;28;20521;-64
2023/09/29 03:53:49;;;;;;;0.70;0.70;;;;;;;;;;5119575;28;20503;-64
2023/09/29 03:56:17;;;;;;;0.70;0.70;;;;;;;;;;5119161;28;20446;-64
2023/09/29 03:58:44;;;;;;;0.70;0.70;;;;;;;;;;5108239;28;20553;-63
2023/09/29 04:01:15;;;;;;;0.70;0.70;;;;;;;;;;5094574;28;20453;-63
2023/09/29 04:03:42;;;;;;;1.03;1.03;;;;;;;;;;5094625;28;20462;-62
2023/09/29 04:06:10;;;;;;;0.70;0.70;;;;;;;;;;5094202;28;20948;-65
2023/09/29 04:08:37;;;;;;;0.70;0.70;;;;;;;;;;5094594;28;20482;-64
2023/09/29 04:11:04;;;;;;;0.70;0.70;;;;;;;;;;5094497;28;20529;-63
2023/09/29 04:13:32;;;;;;;0.70;0.70;;;;;;;;;;5094845;28;20445;-63
2023/09/29 04:15:59;;;;;;;0.70;0.70;;;;;;;;;;5094903;28;20440;-63
2023/09/29 04:18:28;;;;;;;0.70;0.70;;;;;;;;;;5094673;28;20925;-63
2023/09/29 04:20:55;;;;;;;0.70;0.70;;;;;;;;;;5094607;28;20524;-63
2023/09/29 04:23:23;;;;;;;0.70;0.70;;;;;;;;;;5094326;28;20462;-62
2023/09/29 04:25:51;;;;;;;0.70;0.70;;;;;;;;;;5111614;28;20470;-62
2023/09/29 04:28:19;;;;;;;0.70;0.70;;;;;;;;;;5114922;28;20446;-63
2023/09/29 04:30:46;;;;;;;0.70;0.70;;;;;;;;;;5115211;28;20488;-63
2023/09/29 04:33:13;;;;;;;1.10;1.00;;;;;;;;;;5114706;28;21016;-62
2023/09/29 04:35:42;;;;;;;0.70;0.70;;;;;;;;;;5115398;28;20443;-62
2023/09/29 04:38:09;;;;;;;0.70;0.70;;;;;;;;;;5115366;28;20758;-62
2023/09/29 04:40:37;;;;;;;0.70;0.70;;;;;;;;;;5115477;28;20442;-62
2023/09/29 04:43:05;;;;;;;0.70;0.70;;;;;;;;;;5115389;28;20988;-62
2023/09/29 04:45:33;;;;;;;0.70;0.70;;;;;;;;;;5114622;28;20446;-71
2023/09/29 04:48:01;;;;;;;0.70;0.70;;;;;;;;;;5115042;28;20469;-66
2023/09/29 04:50:28;;;;;;;0.70;0.70;;;;;;;;;;5114961;28;20553;-63
2023/09/29 04:52:56;;;;;;;0.70;0.70;;;;;;;;;;5114508;28;20931;-63
2023/09/29 04:55:24;;;;;;;0.70;0.70;;;;;;;;;;5114404;28;20442;-63
2023/09/29 04:57:52;;;;;;;0.70;0.70;;;;;;;;;;5115082;28;20509;-63
2023/09/29 05:00:19;;;;;;;0.70;0.70;;;;;;;;;;5135267;27;20441;-64
2023/09/29 05:02:46;;;;;;;0.70;0.70;;;;;;;;;;5135397;27;20520;-64
2023/09/29 05:05:14;;;;;;;0.70;0.70;;;;;;;;;;5135125;27;20635;-63
2023/09/29 05:07:43;;;;;;;0.70;0.70;;;;;;;;;;5134751;27;21005;-63
2023/09/29 05:10:13;;;;;;;0.70;0.70;;;;;;;;;;5134930;27;20469;-63
2023/09/29 05:12:40;;;;;;;0.70;0.70;;;;;;;;;;5134583;27;20429;-63
2023/09/29 05:15:08;;;;;;;0.70;0.70;;;;;;;;;;5134723;27;20434;-64
2023/09/29 05:17:35;;;;;;;0.70;0.70;;;;;;;;;;5135430;27;20445;-63
2023/09/29 05:20:03;;;;;;;0.70;0.70;;;;;;;;;;5135006;27;20441;-63
2023/09/29 05:22:32;;;;;;;0.70;0.70;;;;;;;;;;5134853;27;20441;-63
2023/09/29 05:24:59;;;;;;;0.70;0.70;;;;;;;;;;5135011;27;20827;-64
2023/09/29 05:27:29;;;;;;;0.70;0.70;;;;;;;;;;5134633;27;20523;-63
2023/09/29 05:29:57;;;;;;;0.70;0.70;;;;;;;;;;5134965;27;20799;-63
2023/09/29 05:32:24;;;;;;;0.70;0.70;;;;;;;;;;5135346;27;20440;-64
2023/09/29 05:34:51;;;;;;;0.70;0.70;;;;;;;;;;5134589;27;20433;-64
2023/09/29 05:37:19;;;;;;;0.70;0.70;;;;;;;;;;5134960;27;20520;-64
2023/09/29 05:39:46;;;;;;;0.70;0.70;;;;;;;;;;5134617;27;20438;-63
2023/09/29 05:42:13;;;;;;;0.70;0.70;;;;;;;;;;5134781;27;20489;-64
2023/09/29 05:44:41;;;;;;;0.70;0.70;;;;;;;;;;5134511;27;20528;-63
2023/09/29 05:47:10;;;;;;;0.70;0.70;;;;;;;;;;5134824;27;20442;-64
2023/09/29 05:49:37;;;;;;;0.70;0.70;;;;;;;;;;5134609;27;20484;-63
2023/09/29 05:52:04;;;;;;;0.70;0.70;;;;;;;;;;5134236;27;20477;-64
2023/09/29 05:54:31;;;;;;;0.70;0.70;;;;;;;;;;5134241;27;20531;-64
2023/09/29 05:56:59;;;;;;;0.70;0.70;;;;;;;;;;5134721;27;20839;-63
2023/09/29 05:59:26;;;;;;;0.70;0.70;;;;;;;;;;5134246;27;20625;-63
2023/09/29 06:01:54;;;;;;;0.70;0.70;;;;;;;;;;5134856;27;20528;-64
2023/09/29 06:04:22;;;;;;;0.70;0.70;;;;;;;;;;5134515;27;20464;-63
2023/09/29 06:06:49;;;;;;;0.70;0.70;;;;;;;;;;5134429;27;20529;-63
2023/09/29 06:09:16;;;;;;;0.70;0.70;;;;;;;;;;5134240;27;20564;-63
2023/09/29 06:11:43;;;;;;;0.70;0.70;;;;;;;;;;5134083;27;20440;-63
2023/09/29 06:14:10;;;;;;;0.70;0.70;;;;;;;;;;5133838;27;20516;-63
2023/09/29 06:16:38;;;;;;;0.70;0.70;;;;;;;;;;5134288;27;20441;-63
2023/09/29 06:19:06;;;;;;;0.70;0.70;;;;;;;;;;5134062;27;20449;-63
2023/09/29 06:21:34;;;;;;;0.70;0.70;;;;;;;;;;5133537;27;20528;-63
2023/09/29 06:24:01;;;;;;;0.80;0.80;;;;;;;;;;5133627;27;20449;-63
2023/09/29 06:26:29;;;;;;;0.70;0.70;;;;;;;;;;5134158;27;20426;-63
2023/09/29 06:28:56;;;;;;;0.87;0.87;;;;;;;;;;5133837;27;20531;-63
2023/09/29 06:31:24;;;;;;;0.70;0.70;;;;;;;;;;5134101;27;20492;-64
2023/09/29 06:33:51;;;;;;;0.70;0.70;;;;;;;;;;5134273;27;20533;-64
2023/09/29 06:36:19;;;;;;;0.70;0.70;;;;;;;;;;5133904;27;20443;-64
2023/09/29 06:38:47;;;;;;;0.70;0.70;;;;;;;;;;5133813;27;20474;-64
2023/09/29 06:41:14;;;;;;;0.70;0.70;;;;;;;;;;5133873;27;20456;-64
2023/09/29 06:43:43;;;;;;;0.70;0.70;;;;;;;;;;5134086;27;20430;-64
2023/09/29 06:46:10;;;;;;;0.70;0.70;;;;;;;;;;5133801;28;20540;-64
2023/09/29 06:48:37;;;;;;;0.70;0.70;;;;;;;;;;5134237;28;20541;-64
2023/09/29 06:51:04;;;;;;;0.70;0.70;;;;;;;;;;5134088;28;20477;-64
2023/09/29 06:53:33;;;;;;;0.70;0.70;;;;;;;;;;5133920;28;20532;-64
2023/09/29 06:56:00;;;;;;;0.70;0.70;;;;;;;;;;5133968;28;20441;-64
2023/09/29 06:58:27;;;;;;;0.70;0.70;;;;;;;;;;5134174;28;20437;-64
2023/09/29 07:00:56;;;;;;;0.70;0.70;;;;;;;;;;5134272;28;20843;-64
2023/09/29 07:03:24;;;;;;;0.70;0.70;;;;;;;;;;5133899;28;20433;-64
2023/09/29 07:05:51;;;;;;;0.70;0.70;;;;;;;;;;5133952;28;20528;-64
2023/09/29 07:08:18;;;;;;;0.70;0.70;;;;;;;;;;5133601;28;20926;-64
2023/09/29 07:10:46;;;;;;;0.70;0.70;;;;;;;;;;5133823;28;20565;-64
2023/09/29 07:13:14;;;;;;;0.70;0.70;;;;;;;;;;5133443;28;20942;-64
2023/09/29 07:15:42;;;;;;;0.70;0.70;;;;;;;;;;5134032;28;20439;-64
2023/09/29 07:18:10;;;;;;;0.70;0.70;;;;;;;;;;5133861;28;20865;-64
2023/09/29 07:20:38;;;;;;;0.70;0.70;;;;;;;;;;5133500;28;20448;-64
2023/09/29 07:23:06;;;;;;;0.70;0.70;;;;;;;;;;5133892;28;20438;-64
2023/09/29 07:25:34;;;;;;;0.70;0.70;;;;;;;;;;5133492;28;20538;-64
2023/09/29 07:28:03;;;;;;;0.70;0.70;;;;;;;;;;5133397;28;20434;-64
2023/09/29 07:30:30;;;;;;;0.83;0.83;;;;;;;;;;5133154;28;20480;-64
2023/09/29 07:32:57;;;;;;;0.70;0.70;;;;;;;;;;5135432;27;20456;-64
2023/09/29 07:35:24;;;;;;;3.00;2.90;;;;;;;;;;5137220;27;20479;-64
2023/09/29 07:37:51;;;;;;;0.70;0.70;;;;;;;;;;5137489;27;20495;-64
2023/09/29 07:40:19;;;;;;;0.70;0.70;;;;;;;;;;5137420;27;20444;-64
2023/09/29 07:42:47;;;;;;;0.70;0.70;;;;;;;;;;5137413;27;20464;-64
2023/09/29 07:45:17;;;;;;;0.70;0.70;;;;;;;;;;5137169;27;20429;-64
2023/09/29 07:47:44;;;;;;;0.70;0.70;;;;;;;;;;5136824;27;21021;-65
2023/09/29 07:50:12;;;;;;;0.70;0.70;;;;;;;;;;5136885;27;20832;-64
2023/09/29 07:52:39;;;;;;;0.70;0.70;;;;;;;;;;5136824;27;20444;-62
2023/09/29 07:55:07;;;;;;;0.70;0.70;;;;;;;;;;5137105;27;20539;-62
2023/09/29 07:57:34;;;;;;;0.70;0.70;;;;;;;;;;5137031;27;20855;-62
2023/09/29 08:00:01;;;;;;;0.70;0.70;;;;;;;;;;5136796;27;20516;-63
2023/09/29 08:02:30;;;;;;;0.70;0.70;;;;;;;;;;5136604;27;20475;-63
2023/09/29 08:04:57;;;;;;;0.70;0.70;;;;;;;;;;5134953;27;20530;-63
2023/09/29 08:07:25;;;;;;;1.13;1.13;;;;;;;;;;5136031;27;20434;-64
2023/09/29 08:09:53;;;;;;;0.70;0.70;;;;;;;;;;5135714;27;20466;-64
2023/09/29 08:12:20;;;;;;;0.80;0.80;;;;;;;;;;5135569;27;20485;-64
2023/09/29 08:14:48;;;;;;;0.80;0.80;;;;;;;;;;5135789;27;20790;-64
2023/09/29 08:17:15;;;;;;;0.70;0.70;;;;;;;;;;5135633;27;20443;-64
2023/09/29 08:19:44;;;;;;;0.70;0.70;;;;;;;;;;5134871;27;20435;-63
2023/09/29 08:22:11;;;;;;;0.70;0.70;;;;;;;;;;5135055;27;20446;-63
2023/09/29 08:24:39;;;;;;;0.70;0.70;;;;;;;;;;5128530;27;20466;-63
2023/09/29 08:27:07;;;;;;;0.70;0.70;;;;;;;;;;5114461;28;20440;-63
2023/09/29 08:29:35;;;;;;;0.70;0.70;;;;;;;;;;5114583;28;20443;-64
2023/09/29 08:32:02;;;;;;;0.70;0.70;;;;;;;;;;5114654;28;20559;-63
2023/09/29 08:34:31;;;;;;;0.70;0.70;;;;;;;;;;5104468;28;20480;-63
2023/09/29 08:37:00;;;;;;;0.80;0.80;;;;;;;;;;5094359;28;20440;-63
2023/09/29 08:39:28;;;;;;;0.70;0.70;;;;;;;;;;5094753;28;20837;-64
2023/09/29 08:42:00;;;;;;;0.70;0.70;;;;;;;;;;5094460;28;20448;-64
2023/09/29 08:44:28;;;;;;;0.70;0.70;;;;;;;;;;5094098;28;20986;-63
2023/09/29 08:46:57;;;;;;;0.70;0.70;;;;;;;;;;5094394;28;20964;-63
2023/09/29 08:49:24;;;;;;;0.70;0.70;;;;;;;;;;5094823;28;20547;-63
2023/09/29 08:51:53;;;;;;;0.70;0.70;;;;;;;;;;5094233;28;20805;-63
2023/09/29 08:54:21;;;;;;;0.70;0.70;;;;;;;;;;5094751;28;20451;-63
2023/09/29 08:56:50;;;;;;;0.70;0.70;;;;;;;;;;5094188;28;20460;-63
2023/09/29 08:59:17;;;;;;;0.70;0.70;;;;;;;;;;5093945;28;21013;-63
2023/09/29 09:01:46;;;;;;;0.70;0.70;;;;;;;;;;5093780;28;20442;-63
2023/09/29 09:04:13;;;;;;;0.70;0.70;;;;;;;;;;5094683;28;20798;-63
2023/09/29 09:06:41;;;;;;;0.70;0.70;;;;;;;;;;5094100;28;20432;-63
2023/09/29 09:09:08;;;;;;;0.70;0.70;;;;;;;;;;5094609;28;20471;-63
2023/09/29 09:11:43;;;;;;;0.70;0.70;;;;;;;;;;5094064;28;20473;-63
2023/09/29 09:14:10;;;;;;;0.70;0.70;;;;;;;;;;5093647;28;20430;-63
2023/09/29 09:16:40;;;;;;;0.70;0.70;;;;;;;;;;5094080;28;20507;-64
2023/09/29 09:19:11;;;;;;;0.70;0.70;;;;;;;;;;5093947;28;20455;-63
2023/09/29 09:21:38;;;;;;;0.70;0.70;;;;;;;;;;5093706;28;20488;-63
2023/09/29 09:24:05;;;;;;;0.77;0.77;;;;;;;;;;5095768;28;20463;-63
2023/09/29 09:26:33;;;;;;;0.73;0.73;;;;;;;;;;5114210;28;20945;-63
2023/09/29 09:29:15;;;;;;;0.70;0.70;;;;;;;;;;5114255;28;20439;-63
2023/09/29 09:31:44;;;;;;;0.80;0.80;;;;;;;;;;5113860;28;20562;-63
2023/09/29 09:34:12;;;;;;;0.80;0.80;;;;;;;;;;5113876;28;20514;-63
2023/09/29 09:36:46;;;;;;;0.80;0.80;;;;;;;;;;5113798;28;20440;-63
2023/09/29 09:39:15;;;;;;;0.70;0.70;;;;;;;;;;5113724;28;20442;-64
2023/09/29 09:41:45;;;;;;;0.70;0.70;;;;;;;;;;5113420;28;20522;-63
2023/09/29 09:44:14;;;;;;;0.80;0.80;;;;;;;;;;5114397;28;20428;-63
2023/09/29 09:46:41;;;;;;;0.70;0.70;;;;;;;;;;5113951;28;20780;-63
2023/09/29 09:49:14;;;;;;;0.70;0.70;;;;;;;;;;5113947;28;20429;-63
2023/09/29 09:51:42;;;;;;;0.73;0.73;;;;;;;;;;5113610;28;20472;-63
2023/09/29 09:54:12;;;;;;;0.70;0.67;;;;;;;;;;5112773;28;20537;-63
2023/09/29 09:56:46;;;;;;;0.70;0.70;;;;;;;;;;5112493;28;20810;-63
2023/09/29 09:59:15;;;;;;;0.70;0.70;;;;;;;;;;5113415;28;20438;-63
2023/09/29 10:01:42;;;;;;;0.70;0.70;;;;;;;;;;5112910;28;20484;-63
2023/09/29 10:04:12;;;;;;;0.70;0.70;;;;;;;;;;5113433;28;20448;-63
2023/09/29 10:06:44;;;;;;;0.70;0.70;;;;;;;;;;5113635;28;20432;-63
2023/09/29 10:09:11;;;;;;;0.70;0.70;;;;;;;;;;5113317;28;20439;-63
2023/09/29 10:11:42;;;;;;;0.70;0.70;;;;;;;;;;5112669;28;20481;-63
2023/09/29 10:14:09;;;;;;;0.70;0.70;;;;;;;;;;5112644;28;20489;-63
2023/09/29 10:16:39;;;;;;;0.70;0.70;;;;;;;;;;5113018;28;20442;-63
2023/09/29 10:19:11;;;;;;;0.80;0.80;;;;;;;;;;5113090;28;20522;-63
2023/09/29 10:21:45;;;;;;;0.70;0.70;;;;;;;;;;5112526;28;20473;-63
2023/09/29 10:24:13;;;;;;;0.80;0.80;;;;;;;;;;5112838;28;20779;-63
2023/09/29 10:26:44;;;;;;;0.70;0.70;;;;;;;;;;5113190;28;20426;-63
2023/09/29 10:29:18;;;;;;;0.70;0.70;;;;;;;;;;5113307;28;20441;-63
2023/09/29 10:31:48;;;;;;;0.70;0.70;;;;;;;;;;5112577;28;20479;-63
2023/09/29 10:34:20;;;;;;;0.70;0.70;;;;;;;;;;5112265;28;20645;-63
2023/09/29 10:36:54;;;;;;;0.70;0.70;;;;;;;;;;5112985;28;20841;-63
2023/09/29 10:39:25;;;;;;;0.70;0.70;;;;;;;;;;5112850;28;20423;-63
2023/09/29 10:41:59;;;;;;;0.70;0.70;;;;;;;;;;5112306;28;20473;-63
2023/09/29 10:44:27;;;;;;;0.70;0.70;;;;;;;;;;5113515;28;20429;-62
2023/09/29 10:46:56;;;;;;;0.70;0.70;;;;;;;;;;5112728;28;20537;-63
2023/09/29 10:49:31;;;;;;;0.70;0.70;;;;;;;;;;5113336;28;20475;-63
2023/09/29 10:51:59;;;;;;;0.70;0.70;;;;;;;;;;5112300;28;20831;-63
2023/09/29 10:54:26;;;;;;;0.70;0.70;;;;;;;;;;5112758;28;20443;-63
2023/09/29 10:56:53;;;;;;;0.70;0.70;;;;;;;;;;5112820;28;20489;-63
2023/09/29 10:59:21;;;;;;;0.70;0.70;;;;;;;;;;5112543;28;20584;-62
2023/09/29 11:01:49;;;;;;;0.70;0.70;;;;;;;;;;5112113;28;20445;-64
2023/09/29 11:04:18;;;;;;;0.70;0.70;;;;;;;;;;5112912;28;20801;-63
2023/09/29 11:06:46;;;;;;;0.70;0.70;;;;;;;;;;5112864;28;20530;-63
2023/09/29 11:09:17;;;;;;;0.70;0.70;;;;;;;;;;5116257;28;20443;-63
2023/09/29 11:11:45;;;;;;;0.80;0.80;;;;;;;;;;5116787;28;20476;-64
2023/09/29 11:14:12;;;;;;;0.70;0.70;;;;;;;;;;5116333;28;20439;-63
2023/09/29 11:16:39;;;;;;;0.70;0.70;;;;;;;;;;5116687;28;20539;-63
2023/09/29 11:19:14;;;;;;;0.87;0.87;;;;;;;;;;5116489;28;20926;-63
2023/09/29 11:21:43;;;;;;;0.70;0.60;;;;;;;;;;5116268;28;20901;-63
2023/09/29 11:24:11;;;;;;;0.80;0.80;;;;;;;;;;5116174;28;20531;-63
2023/09/29 11:26:41;;;;;;;0.70;0.70;;;;;;;;;;5116720;28;20430;-63
2023/09/29 11:29:09;;;;;;;0.70;0.70;;;;;;;;;;5115499;28;20441;-63
2023/09/29 11:31:38;;;;;;;0.70;0.70;;;;;;;;;;5116392;28;20477;-64
2023/09/29 11:34:06;;;;;;;0.80;0.80;;;;;;;;;;5116603;28;20435;-63
2023/09/29 11:36:33;;;;;;;0.70;0.70;;;;;;;;;;5116641;28;20442;-63
2023/09/29 11:39:02;;;;;;;0.70;0.70;;;;;;;;;;5116587;28;20449;-63
2023/09/29 11:41:29;;;;;;;0.70;0.70;;;;;;;;;;5116180;28;20434;-63
2023/09/29 11:43:57;;;;;;;0.70;0.70;;;;;;;;;;5116102;28;20447;-63
2023/09/29 11:46:24;;;;;;;0.80;0.80;;;;;;;;;;5116198;28;20445;-63
2023/09/29 11:48:51;;;;;;;0.70;0.70;;;;;;;;;;5116562;28;20805;-63
2023/09/29 11:51:18;;;;;;;0.70;0.70;;;;;;;;;;5116310;28;20481;-63
2023/09/29 11:53:47;;;;;;;0.70;0.70;;;;;;;;;;5116390;28;20444;-63
2023/09/29 11:56:16;;;;;;;0.70;0.70;;;;;;;;;;5116292;28;20445;-63
2023/09/29 11:58:43;;;;;;;0.70;0.70;;;;;;;;;;5116142;28;20445;-63
2023/09/29 12:01:10;;;;;;;0.70;0.70;;;;;;;;;;5115736;28;20918;-63
2023/09/29 12:03:38;;;;;;;0.70;0.70;;;;;;;;;;5116008;28;20441;-63
2023/09/29 12:06:05;;;;;;;0.70;0.70;;;;;;;;;;5116081;28;20464;-63
2023/09/29 12:08:32;;;;;;;0.73;0.73;;;;;;;;;;5116307;28;20436;-63
2023/09/29 12:11:00;;;;;;;0.70;0.70;;;;;;;;;;5116402;28;20433;-63
2023/09/29 12:13:29;;;;;;;0.70;0.70;;;;;;;;;;5132557;27;20455;-63
2023/09/29 12:15:56;;;;;;;0.70;0.70;;;;;;;;;;5135542;27;20442;-63
2023/09/29 12:18:26;;;;;;;0.70;0.70;;;;;;;;;;5136166;27;20796;-63
2023/09/29 12:20:55;;;;;;;0.70;0.70;;;;;;;;;;5135404;27;20432;-63
2023/09/29 12:23:22;;;;;;;0.70;0.70;;;;;;;;;;5136618;27;20444;-63
2023/09/29 12:25:50;;;;;;;0.70;0.70;;;;;;;;;;5135904;27;20559;-63
2023/09/29 12:28:17;;;;;;;0.70;0.70;;;;;;;;;;5135812;27;20443;-63
2023/09/29 12:30:45;;;;;;;0.70;0.70;;;;;;;;;;5135999;27;20522;-63
2023/09/29 12:33:13;;;;;;;0.70;0.70;;;;;;;;;;5135385;27;20472;-63
2023/09/29 12:35:40;;;;;;;0.70;0.70;;;;;;;;;;5135458;27;20439;-63
2023/09/29 12:38:07;;;;;;;0.70;0.70;;;;;;;;;;5135982;27;20871;-63
2023/09/29 12:40:34;;;;;;;0.70;0.70;;;;;;;;;;5136116;27;20800;-63
2023/09/29 12:43:02;;;;;;;0.70;0.70;;;;;;;;;;5136150;27;20473;-62
2023/09/29 12:45:29;;;;;;;0.70;0.70;;;;;;;;;;5135795;27;20466;-63
2023/09/29 12:47:59;;;;;;;0.70;0.70;;;;;;;;;;5135899;27;20852;-63
2023/09/29 12:50:26;;;;;;;0.70;0.70;;;;;;;;;;5135652;27;20456;-63
2023/09/29 12:52:54;;;;;;;0.80;0.80;;;;;;;;;;5135196;27;20484;-64
2023/09/29 12:55:22;;;;;;;0.70;0.70;;;;;;;;;;5135428;27;20448;-63
2023/09/29 12:57:52;;;;;;;0.80;0.80;;;;;;;;;;5134849;27;20427;-63
2023/09/29 13:00:19;;;;;;;0.70;0.60;;;;;;;;;;5135012;27;20483;-63
2023/09/29 13:02:49;;;;;;;0.70;0.70;;;;;;;;;;5135122;27;20527;-63
2023/09/29 13:05:18;;;;;;;0.70;0.70;;;;;;;;;;5135047;27;20474;-63
2023/09/29 13:07:47;;;;;;;0.70;0.70;;;;;;;;;;5134919;27;20441;-63
2023/09/29 13:10:15;;;;;;;0.70;0.67;;;;;;;;;;5134672;27;20444;-63
2023/09/29 13:12:42;;;;;;;0.70;0.70;;;;;;;;;;5121890;27;20477;-63
2023/09/29 13:15:10;;;;;;;0.70;0.70;;;;;;;;;;5113992;28;20505;-63
2023/09/29 13:17:38;;;;;;;0.70;0.70;;;;;;;;;;5113964;28;20596;-63
2023/09/29 13:20:06;;;;;;;0.70;0.70;;;;;;;;;;5114737;28;20842;-63
2023/09/29 13:22:34;;;;;;;0.70;0.70;;;;;;;;;;5114826;28;20552;-63
2023/09/29 13:25:02;;;;;;;0.70;0.70;;;;;;;;;;5114380;28;20458;-63
2023/09/29 13:27:32;;;;;;;0.70;0.70;;;;;;;;;;5114522;28;20958;-63
2023/09/29 13:29:59;;;;;;;0.70;0.70;;;;;;;;;;5114054;28;20477;-63
2023/09/29 13:32:26;;;;;;;0.70;0.70;;;;;;;;;;5114451;28;20480;-63
2023/09/29 13:34:53;;;;;;;0.70;0.70;;;;;;;;;;5114094;28;20498;-63
2023/09/29 13:37:21;;;;;;;0.70;0.70;;;;;;;;;;5114435;28;20600;-63
2023/09/29 13:39:49;;;;;;;0.70;0.70;;;;;;;;;;5114116;28;20438;-63
2023/09/29 13:42:16;;;;;;;0.80;0.80;;;;;;;;;;5114095;28;21044;-63
2023/09/29 13:44:44;;;;;;;0.90;0.90;;;;;;;;;;5114349;28;20440;-63
2023/09/29 13:47:11;;;;;;;0.70;0.70;;;;;;;;;;5114603;28;20493;-63
2023/09/29 13:49:38;;;;;;;0.70;0.70;;;;;;;;;;5113764;28;20922;-63
2023/09/29 13:52:06;;;;;;;0.70;0.70;;;;;;;;;;5114114;28;20487;-63
2023/09/29 13:54:33;;;;;;;0.70;0.70;;;;;;;;;;5114360;28;20437;-63
2023/09/29 13:57:03;;;;;;;0.70;0.70;;;;;;;;;;5113831;28;20495;-63
2023/09/29 13:59:30;;;;;;;0.80;0.80;;;;;;;;;;5113934;28;20439;-63
2023/09/29 14:01:57;;;;;;;0.70;0.70;;;;;;;;;;5114035;28;20536;-63
2023/09/29 14:04:24;;;;;;;0.70;0.70;;;;;;;;;;5113581;28;20469;-63
2023/09/29 14:06:52;;;;;;;0.70;0.70;;;;;;;;;;5113656;28;20438;-63
2023/09/29 14:09:19;;;;;;;0.70;0.63;;;;;;;;;;5114166;28;20439;-63
2023/09/29 14:11:46;;;;;;;0.70;0.70;;;;;;;;;;5114249;28;20435;-63
2023/09/29 14:14:15;;;;;;;0.70;0.63;;;;;;;;;;5114057;28;20481;-65
2023/09/29 14:16:42;;;;;;;1.10;1.00;;;;;;;;;;5114026;28;20444;-63
2023/09/29 14:19:09;;;;;;;0.70;0.70;;;;;;;;;;5113730;28;20529;-62
2023/09/29 14:21:36;;;;;;;0.70;0.70;;;;;;;;;;5115369;27;20454;-61
2023/09/29 14:24:04;;;;;;;0.80;0.80;;;;;;;;;;5130392;27;20448;-62
2023/09/29 14:26:31;;;;;;;0.70;0.70;;;;;;;;;;5112391;28;20516;-63
2023/09/29 14:28:58;;;;;;;0.70;0.70;;;;;;;;;;5112396;28;20440;-60
2023/09/29 14:31:27;;;;;;;0.70;0.70;;;;;;;;;;5112212;28;20472;-61
2023/09/29 14:33:54;;;;;;;0.70;0.70;;;;;;;;;;5112103;28;20508;-61
2023/09/29 14:36:22;;;;;;;0.70;0.70;;;;;;;;;;5112044;28;20537;-62
2023/09/29 14:38:49;;;;;;;0.70;0.60;;;;;;;;;;5112835;28;20804;-62
2023/09/29 14:41:16;;;;;;;0.70;0.60;;;;;;;;;;5112919;28;20439;-61
2023/09/29 14:43:45;;;;;;;0.80;0.80;;;;;;;;;;5111745;28;20504;-64
2023/09/29 14:46:13;;;;;;;0.70;0.70;;;;;;;;;;5112534;28;20984;-61
2023/09/29 14:48:42;;;;;;;0.70;0.70;;;;;;;;;;5113225;28;20461;-62